sensor_id;sensor_type;location;lat;lon;timestamp;temperature;humidity
38684;DHT22;24910;53.248;-6.134;2024-02-14T00:01:52;10.80;91.60
38684;DHT22;24910;53.248;-6.134;2024-02-14T00:04:21;10.80;91.60
38684;DHT22;24910;53.248;-6.134;2024-02-14T00:06:50;10.90;91.60
38684;DHT22;24910;53.248;-6.134;2024-02-14T00:09:23;10.90;91.60
38684;DHT22;24910;53.248;-6.134;2024-02-14T00:11:52;10.90;91.60
38684;DHT22;24910;53.248;-6.134;2024-02-14T00:14:21;10.90;91.60
38684;DHT22;24910;53.248;-6.134;2024-02-14T00:16:51;10.90;91.60
38684;DHT22;24910;53.248;-6.134;2024-02-14T00:19:20;11.00;91.60
38684;DHT22;24910;53.248;-6.134;2024-02-14T00:21:50;11.00;91.60
38684;DHT22;24910;53.248;-6.134;2024-02-14T00:24:19;11.00;91.60
38684;DHT22;24910;53.248;-6.134;2024-02-14T00:26:50;11.00;91.60
38684;DHT22;24910;53.248;-6.134;2024-02-14T00:29:19;11.00;91.50
38684;DHT22;24910;53.248;-6.134;2024-02-14T00:31:49;11.00;91.50
38684;DHT22;24910;53.248;-6.134;2024-02-14T00:34:21;11.00;91.90
38684;DHT22;24910;53.248;-6.134;2024-02-14T00:36:51;11.10;91.50
38684;DHT22;24910;53.248;-6.134;2024-02-14T00:39:20;11.10;91.50
38684;DHT22;24910;53.248;-6.134;2024-02-14T00:41:51;11.10;91.50
38684;DHT22;24910;53.248;-6.134;2024-02-14T00:44:21;11.10;91.40
38684;DHT22;24910;53.248;-6.134;2024-02-14T00:46:56;11.10;91.40
38684;DHT22;24910;53.248;-6.134;2024-02-14T00:49:27;11.10;91.40
38684;DHT22;24910;53.248;-6.134;2024-02-14T00:51:56;11.00;91.40
38684;DHT22;24910;53.248;-6.134;2024-02-14T00:54:25;11.00;91.40
38684;DHT22;24910;53.248;-6.134;2024-02-14T00:56:56;11.00;91.50
38684;DHT22;24910;53.248;-6.134;2024-02-14T00:59:25;11.00;91.50
38684;DHT22;24910;53.248;-6.134;2024-02-14T01:01:55;10.90;91.50
38684;DHT22;24910;53.248;-6.134;2024-02-14T01:04:24;10.90;91.50
38684;DHT22;24910;53.248;-6.134;2024-02-14T01:06:54;10.90;91.60
38684;DHT22;24910;53.248;-6.134;2024-02-14T01:09:23;10.90;91.60
38684;DHT22;24910;53.248;-6.134;2024-02-14T01:11:52;10.90;91.50
38684;DHT22;24910;53.248;-6.134;2024-02-14T01:14:23;10.90;91.50
38684;DHT22;24910;53.248;-6.134;2024-02-14T01:16:53;10.90;91.50
38684;DHT22;24910;53.248;-6.134;2024-02-14T01:19:22;10.90;91.60
38684;DHT22;24910;53.248;-6.134;2024-02-14T01:21:53;10.90;91.50
38684;DHT22;24910;53.248;-6.134;2024-02-14T01:24:23;10.90;91.60
38684;DHT22;24910;53.248;-6.134;2024-02-14T01:26:54;10.90;91.50
38684;DHT22;24910;53.248;-6.134;2024-02-14T01:29:26;10.90;91.50
38684;DHT22;24910;53.248;-6.134;2024-02-14T01:31:55;10.90;91.50
38684;DHT22;24910;53.248;-6.134;2024-02-14T01:34:25;10.90;91.50
38684;DHT22;24910;53.248;-6.134;2024-02-14T01:36:56;10.90;91.50
38684;DHT22;24910;53.248;-6.134;2024-02-14T01:39:25;10.80;91.40
38684;DHT22;24910;53.248;-6.134;2024-02-14T01:41:55;10.80;91.50
38684;DHT22;24910;53.248;-6.134;2024-02-14T01:44:26;10.80;91.40
38684;DHT22;24910;53.248;-6.134;2024-02-14T01:46:55;10.80;91.50
38684;DHT22;24910;53.248;-6.134;2024-02-14T01:49:24;10.70;91.40
38684;DHT22;24910;53.248;-6.134;2024-02-14T01:51:59;10.70;91.50
38684;DHT22;24910;53.248;-6.134;2024-02-14T01:54:30;10.70;91.60
38684;DHT22;24910;53.248;-6.134;2024-02-14T01:57:00;10.70;91.50
38684;DHT22;24910;53.248;-6.134;2024-02-14T01:59:32;10.60;91.50
38684;DHT22;24910;53.248;-6.134;2024-02-14T02:02:03;10.60;91.50
38684;DHT22;24910;53.248;-6.134;2024-02-14T02:04:36;10.60;91.50
38684;DHT22;24910;53.248;-6.134;2024-02-14T02:07:05;10.60;91.50
38684;DHT22;24910;53.248;-6.134;2024-02-14T02:09:35;10.60;91.50
38684;DHT22;24910;53.248;-6.134;2024-02-14T02:12:05;10.60;91.60
38684;DHT22;24910;53.248;-6.134;2024-02-14T02:14:57;10.60;91.50
38684;DHT22;24910;53.248;-6.134;2024-02-14T02:17:47;10.60;91.50
38684;DHT22;24910;53.248;-6.134;2024-02-14T02:20:40;10.60;91.50
38684;DHT22;24910;53.248;-6.134;2024-02-14T02:23:12;10.60;91.50
38684;DHT22;24910;53.248;-6.134;2024-02-14T02:25:46;10.60;91.40
38684;DHT22;24910;53.248;-6.134;2024-02-14T02:28:35;10.60;91.40
38684;DHT22;24910;53.248;-6.134;2024-02-14T02:31:04;10.60;91.50
38684;DHT22;24910;53.248;-6.134;2024-02-14T02:33:36;10.70;91.50
38684;DHT22;24910;53.248;-6.134;2024-02-14T02:36:06;10.70;91.50
38684;DHT22;24910;53.248;-6.134;2024-02-14T02:38:59;10.70;91.50
38684;DHT22;24910;53.248;-6.134;2024-02-14T02:41:48;10.80;91.50
38684;DHT22;24910;53.248;-6.134;2024-02-14T02:44:56;10.80;91.50
38684;DHT22;24910;53.248;-6.134;2024-02-14T02:47:48;10.90;91.50
38684;DHT22;24910;53.248;-6.134;2024-02-14T02:50:40;11.00;91.50
38684;DHT22;24910;53.248;-6.134;2024-02-14T02:53:28;11.10;91.50
38684;DHT22;24910;53.248;-6.134;2024-02-14T02:56:19;11.10;91.50
38684;DHT22;24910;53.248;-6.134;2024-02-14T02:58:50;11.20;91.50
38684;DHT22;24910;53.248;-6.134;2024-02-14T03:01:19;11.20;91.50
38684;DHT22;24910;53.248;-6.134;2024-02-14T03:04:08;11.30;91.50
38684;DHT22;24910;53.248;-6.134;2024-02-14T03:06:58;11.30;91.50
38684;DHT22;24910;53.248;-6.134;2024-02-14T03:09:45;11.30;91.50
38684;DHT22;24910;53.248;-6.134;2024-02-14T03:12:36;11.30;91.50
38684;DHT22;24910;53.248;-6.134;2024-02-14T03:15:26;11.40;91.50
38684;DHT22;24910;53.248;-6.134;2024-02-14T03:17:56;11.40;91.50
38684;DHT22;24910;53.248;-6.134;2024-02-14T03:20:25;11.40;91.50
38684;DHT22;24910;53.248;-6.134;2024-02-14T03:22:57;11.40;91.60
38684;DHT22;24910;53.248;-6.134;2024-02-14T03:25:26;11.40;91.60
38684;DHT22;24910;53.248;-6.134;2024-02-14T03:28:02;11.40;91.60
38684;DHT22;24910;53.248;-6.134;2024-02-14T03:30:35;11.40;91.70
38684;DHT22;24910;53.248;-6.134;2024-02-14T03:33:05;11.40;91.60
38684;DHT22;24910;53.248;-6.134;2024-02-14T03:35:36;11.40;91.70
38684;DHT22;24910;53.248;-6.134;2024-02-14T03:38:05;11.40;91.70
38684;DHT22;24910;53.248;-6.134;2024-02-14T03:40:36;11.30;91.70
38684;DHT22;24910;53.248;-6.134;2024-02-14T03:43:07;11.40;91.70
38684;DHT22;24910;53.248;-6.134;2024-02-14T03:45:39;11.40;91.70
38684;DHT22;24910;53.248;-6.134;2024-02-14T03:48:09;11.30;91.70
38684;DHT22;24910;53.248;-6.134;2024-02-14T03:50:39;11.40;91.80
38684;DHT22;24910;53.248;-6.134;2024-02-14T03:53:09;11.40;91.80
38684;DHT22;24910;53.248;-6.134;2024-02-14T03:55:39;11.40;91.80
38684;DHT22;24910;53.248;-6.134;2024-02-14T03:58:09;11.40;91.80
38684;DHT22;24910;53.248;-6.134;2024-02-14T04:00:39;11.40;91.80
38684;DHT22;24910;53.248;-6.134;2024-02-14T04:03:11;11.50;91.80
38684;DHT22;24910;53.248;-6.134;2024-02-14T04:05:40;11.50;91.80
38684;DHT22;24910;53.248;-6.134;2024-02-14T04:08:10;11.50;91.80
38684;DHT22;24910;53.248;-6.134;2024-02-14T04:10:39;11.50;91.80
38684;DHT22;24910;53.248;-6.134;2024-02-14T04:13:10;11.50;91.80
38684;DHT22;24910;53.248;-6.134;2024-02-14T04:15:40;11.50;91.80
38684;DHT22;24910;53.248;-6.134;2024-02-14T04:18:13;11.50;91.80
38684;DHT22;24910;53.248;-6.134;2024-02-14T04:20:44;11.60;91.80
38684;DHT22;24910;53.248;-6.134;2024-02-14T04:23:13;11.60;91.80
38684;DHT22;24910;53.248;-6.134;2024-02-14T04:25:43;11.60;91.70
38684;DHT22;24910;53.248;-6.134;2024-02-14T04:28:14;11.60;91.80
38684;DHT22;24910;53.248;-6.134;2024-02-14T04:30:43;11.60;91.80
38684;DHT22;24910;53.248;-6.134;2024-02-14T04:33:18;11.50;91.80
38684;DHT22;24910;53.248;-6.134;2024-02-14T04:35:49;11.60;91.80
38684;DHT22;24910;53.248;-6.134;2024-02-14T04:38:19;11.50;91.80
38684;DHT22;24910;53.248;-6.134;2024-02-14T04:40:48;11.60;91.80
38684;DHT22;24910;53.248;-6.134;2024-02-14T04:43:19;11.60;91.80
38684;DHT22;24910;53.248;-6.134;2024-02-14T04:45:48;11.60;91.90
38684;DHT22;24910;53.248;-6.134;2024-02-14T04:48:19;11.60;91.90
38684;DHT22;24910;53.248;-6.134;2024-02-14T04:50:48;11.60;91.90
38684;DHT22;24910;53.248;-6.134;2024-02-14T04:53:18;11.60;91.90
38684;DHT22;24910;53.248;-6.134;2024-02-14T04:55:47;11.60;92.00
38684;DHT22;24910;53.248;-6.134;2024-02-14T04:58:18;11.60;92.00
38684;DHT22;24910;53.248;-6.134;2024-02-14T05:00:47;11.60;92.00
38684;DHT22;24910;53.248;-6.134;2024-02-14T05:03:17;11.60;92.00
38684;DHT22;24910;53.248;-6.134;2024-02-14T05:05:46;11.60;92.00
38684;DHT22;24910;53.248;-6.134;2024-02-14T05:08:16;11.60;92.00
38684;DHT22;24910;53.248;-6.134;2024-02-14T05:10:45;11.70;92.00
38684;DHT22;24910;53.248;-6.134;2024-02-14T05:13:14;11.70;92.00
38684;DHT22;24910;53.248;-6.134;2024-02-14T05:15:45;11.70;92.00
38684;DHT22;24910;53.248;-6.134;2024-02-14T05:18:15;11.70;92.00
38684;DHT22;24910;53.248;-6.134;2024-02-14T05:20:45;11.80;92.00
38684;DHT22;24910;53.248;-6.134;2024-02-14T05:23:14;11.80;92.00
38684;DHT22;24910;53.248;-6.134;2024-02-14T05:25:45;11.80;92.00
38684;DHT22;24910;53.248;-6.134;2024-02-14T05:28:15;11.80;92.00
38684;DHT22;24910;53.248;-6.134;2024-02-14T05:30:48;11.80;92.00
38684;DHT22;24910;53.248;-6.134;2024-02-14T05:33:26;11.80;92.00
38684;DHT22;24910;53.248;-6.134;2024-02-14T05:35:55;11.90;92.00
38684;DHT22;24910;53.248;-6.134;2024-02-14T05:38:25;11.90;92.00
38684;DHT22;24910;53.248;-6.134;2024-02-14T05:40:54;11.90;92.10
38684;DHT22;24910;53.248;-6.134;2024-02-14T05:43:24;11.90;92.00
38684;DHT22;24910;53.248;-6.134;2024-02-14T05:45:54;11.90;92.00
38684;DHT22;24910;53.248;-6.134;2024-02-14T05:48:24;11.90;92.10
38684;DHT22;24910;53.248;-6.134;2024-02-14T05:50:54;11.90;92.10
38684;DHT22;24910;53.248;-6.134;2024-02-14T05:53:23;11.90;92.10
38684;DHT22;24910;53.248;-6.134;2024-02-14T05:55:52;11.90;92.10
38684;DHT22;24910;53.248;-6.134;2024-02-14T05:58:22;11.90;92.10
38684;DHT22;24910;53.248;-6.134;2024-02-14T06:00:56;11.90;92.10
38684;DHT22;24910;53.248;-6.134;2024-02-14T06:03:25;11.90;92.20
38684;DHT22;24910;53.248;-6.134;2024-02-14T06:05:55;11.90;92.20
38684;DHT22;24910;53.248;-6.134;2024-02-14T06:08:24;11.90;92.20
38684;DHT22;24910;53.248;-6.134;2024-02-14T06:10:55;11.90;92.10
38684;DHT22;24910;53.248;-6.134;2024-02-14T06:13:24;11.90;92.20
38684;DHT22;24910;53.248;-6.134;2024-02-14T06:15:53;11.90;92.20
38684;DHT22;24910;53.248;-6.134;2024-02-14T06:18:24;11.90;92.20
38684;DHT22;24910;53.248;-6.134;2024-02-14T06:20:54;11.90;92.20
38684;DHT22;24910;53.248;-6.134;2024-02-14T06:23:24;11.90;92.20
38684;DHT22;24910;53.248;-6.134;2024-02-14T06:25:53;11.90;92.20
38684;DHT22;24910;53.248;-6.134;2024-02-14T06:28:23;11.90;92.20
38684;DHT22;24910;53.248;-6.134;2024-02-14T06:30:52;11.90;92.30
38684;DHT22;24910;53.248;-6.134;2024-02-14T06:33:23;11.90;92.30
38684;DHT22;24910;53.248;-6.134;2024-02-14T06:35:53;11.90;92.30
38684;DHT22;24910;53.248;-6.134;2024-02-14T06:38:23;11.90;92.70
38684;DHT22;24910;53.248;-6.134;2024-02-14T06:40:52;11.90;92.30
38684;DHT22;24910;53.248;-6.134;2024-02-14T06:43:21;11.90;92.30
38684;DHT22;24910;53.248;-6.134;2024-02-14T06:45:51;11.90;92.40
38684;DHT22;24910;53.248;-6.134;2024-02-14T06:48:26;12.00;92.40
38684;DHT22;24910;53.248;-6.134;2024-02-14T06:50:56;12.00;92.40
38684;DHT22;24910;53.248;-6.134;2024-02-14T06:53:25;12.00;92.40
38684;DHT22;24910;53.248;-6.134;2024-02-14T06:55:54;12.00;92.40
38684;DHT22;24910;53.248;-6.134;2024-02-14T06:58:24;12.00;92.40
38684;DHT22;24910;53.248;-6.134;2024-02-14T07:00:53;12.00;92.40
38684;DHT22;24910;53.248;-6.134;2024-02-14T07:03:22;12.00;92.40
38684;DHT22;24910;53.248;-6.134;2024-02-14T07:05:52;12.00;92.40
38684;DHT22;24910;53.248;-6.134;2024-02-14T07:08:22;12.00;92.40
38684;DHT22;24910;53.248;-6.134;2024-02-14T07:10:54;12.00;92.40
38684;DHT22;24910;53.248;-6.134;2024-02-14T07:13:24;12.00;92.40
38684;DHT22;24910;53.248;-6.134;2024-02-14T07:15:54;12.00;92.50
38684;DHT22;24910;53.248;-6.134;2024-02-14T07:18:23;12.00;92.50
38684;DHT22;24910;53.248;-6.134;2024-02-14T07:20:54;12.00;92.50
38684;DHT22;24910;53.248;-6.134;2024-02-14T07:23:23;12.00;92.50
38684;DHT22;24910;53.248;-6.134;2024-02-14T07:25:54;12.00;92.50
38684;DHT22;24910;53.248;-6.134;2024-02-14T07:28:23;12.00;92.50
38684;DHT22;24910;53.248;-6.134;2024-02-14T07:30:53;12.00;92.50
38684;DHT22;24910;53.248;-6.134;2024-02-14T07:33:22;12.00;92.50
38684;DHT22;24910;53.248;-6.134;2024-02-14T07:35:53;12.00;92.50
38684;DHT22;24910;53.248;-6.134;2024-02-14T07:38:23;12.00;92.50
38684;DHT22;24910;53.248;-6.134;2024-02-14T07:40:52;12.00;92.50
38684;DHT22;24910;53.248;-6.134;2024-02-14T07:43:26;12.00;92.50
38684;DHT22;24910;53.248;-6.134;2024-02-14T07:45:55;12.00;92.50
38684;DHT22;24910;53.248;-6.134;2024-02-14T07:48:24;12.00;92.50
38684;DHT22;24910;53.248;-6.134;2024-02-14T07:50:55;12.00;92.50
38684;DHT22;24910;53.248;-6.134;2024-02-14T07:53:26;12.00;92.60
38684;DHT22;24910;53.248;-6.134;2024-02-14T07:55:56;12.10;92.60
38684;DHT22;24910;53.248;-6.134;2024-02-14T07:58:25;12.00;92.70
38684;DHT22;24910;53.248;-6.134;2024-02-14T08:00:54;12.00;92.70
38684;DHT22;24910;53.248;-6.134;2024-02-14T08:03:24;12.00;92.80
38684;DHT22;24910;53.248;-6.134;2024-02-14T08:05:54;11.90;92.80
38684;DHT22;24910;53.248;-6.134;2024-02-14T08:08:25;12.00;92.80
38684;DHT22;24910;53.248;-6.134;2024-02-14T08:10:55;11.90;92.80
38684;DHT22;24910;53.248;-6.134;2024-02-14T08:13:25;11.90;92.80
38684;DHT22;24910;53.248;-6.134;2024-02-14T08:15:54;11.90;92.80
38684;DHT22;24910;53.248;-6.134;2024-02-14T08:18:23;11.90;92.80
38684;DHT22;24910;53.248;-6.134;2024-02-14T08:20:56;12.00;92.80
38684;DHT22;24910;53.248;-6.134;2024-02-14T08:23:26;11.90;92.80
38684;DHT22;24910;53.248;-6.134;2024-02-14T08:25:55;12.00;92.80
38684;DHT22;24910;53.248;-6.134;2024-02-14T08:28:24;12.00;92.80
38684;DHT22;24910;53.248;-6.134;2024-02-14T08:30:54;12.00;92.80
38684;DHT22;24910;53.248;-6.134;2024-02-14T08:33:23;12.00;92.80
38684;DHT22;24910;53.248;-6.134;2024-02-14T08:35:53;12.00;92.80
38684;DHT22;24910;53.248;-6.134;2024-02-14T08:38:27;12.00;92.70
38684;DHT22;24910;53.248;-6.134;2024-02-14T08:40:56;12.10;92.70
38684;DHT22;24910;53.248;-6.134;2024-02-14T08:43:25;12.10;92.70
38684;DHT22;24910;53.248;-6.134;2024-02-14T08:45:56;12.10;92.70
38684;DHT22;24910;53.248;-6.134;2024-02-14T08:48:26;12.10;92.70
38684;DHT22;24910;53.248;-6.134;2024-02-14T08:50:57;12.10;93.10
38684;DHT22;24910;53.248;-6.134;2024-02-14T08:53:28;12.10;92.70
38684;DHT22;24910;53.248;-6.134;2024-02-14T08:55:57;12.20;92.60
38684;DHT22;24910;53.248;-6.134;2024-02-14T08:58:27;12.20;92.60
38684;DHT22;24910;53.248;-6.134;2024-02-14T09:00:56;12.20;92.60
38684;DHT22;24910;53.248;-6.134;2024-02-14T09:03:40;12.20;92.60
38684;DHT22;24910;53.248;-6.134;2024-02-14T09:06:11;12.30;92.60
38684;DHT22;24910;53.248;-6.134;2024-02-14T09:08:44;12.30;92.60
38684;DHT22;24910;53.248;-6.134;2024-02-14T09:11:13;12.30;92.60
38684;DHT22;24910;53.248;-6.134;2024-02-14T09:13:43;12.30;92.60
38684;DHT22;24910;53.248;-6.134;2024-02-14T09:16:16;12.40;92.60
38684;DHT22;24910;53.248;-6.134;2024-02-14T09:18:45;12.40;92.70
38684;DHT22;24910;53.248;-6.134;2024-02-14T09:21:15;12.40;92.60
38684;DHT22;24910;53.248;-6.134;2024-02-14T09:23:48;12.40;92.70
38684;DHT22;24910;53.248;-6.134;2024-02-14T09:26:17;12.40;92.70
38684;DHT22;24910;53.248;-6.134;2024-02-14T09:28:47;12.50;92.70
38684;DHT22;24910;53.248;-6.134;2024-02-14T09:31:19;12.50;92.70
38684;DHT22;24910;53.248;-6.134;2024-02-14T09:33:49;12.50;92.70
38684;DHT22;24910;53.248;-6.134;2024-02-14T09:36:19;12.50;92.80
38684;DHT22;24910;53.248;-6.134;2024-02-14T09:38:51;12.50;92.80
38684;DHT22;24910;53.248;-6.134;2024-02-14T09:41:25;12.50;92.80
38684;DHT22;24910;53.248;-6.134;2024-02-14T09:43:55;12.50;92.90
38684;DHT22;24910;53.248;-6.134;2024-02-14T09:46:25;12.50;92.90
38684;DHT22;24910;53.248;-6.134;2024-02-14T09:48:54;12.60;92.90
38684;DHT22;24910;53.248;-6.134;2024-02-14T09:51:25;12.60;92.90
38684;DHT22;24910;53.248;-6.134;2024-02-14T09:53:57;12.70;92.90
38684;DHT22;24910;53.248;-6.134;2024-02-14T09:56:29;12.70;92.80
38684;DHT22;24910;53.248;-6.134;2024-02-14T09:58:59;12.80;92.80
38684;DHT22;24910;53.248;-6.134;2024-02-14T10:01:30;12.90;92.80
38684;DHT22;24910;53.248;-6.134;2024-02-14T10:04:00;13.00;92.80
38684;DHT22;24910;53.248;-6.134;2024-02-14T10:06:31;13.10;92.70
38684;DHT22;24910;53.248;-6.134;2024-02-14T10:09:03;13.20;92.70
38684;DHT22;24910;53.248;-6.134;2024-02-14T10:11:33;13.30;92.70
38684;DHT22;24910;53.248;-6.134;2024-02-14T10:14:04;13.30;92.70
38684;DHT22;24910;53.248;-6.134;2024-02-14T10:16:37;13.40;92.70
38684;DHT22;24910;53.248;-6.134;2024-02-14T10:19:14;13.50;92.60
38684;DHT22;24910;53.248;-6.134;2024-02-14T10:21:54;13.60;92.60
38684;DHT22;24910;53.248;-6.134;2024-02-14T10:24:26;13.70;92.60
38684;DHT22;24910;53.248;-6.134;2024-02-14T10:26:58;13.70;92.50
38684;DHT22;24910;53.248;-6.134;2024-02-14T10:29:27;13.80;92.50
38684;DHT22;24910;53.248;-6.134;2024-02-14T10:31:57;13.80;92.50
38684;DHT22;24910;53.248;-6.134;2024-02-14T10:34:26;13.80;92.60
38684;DHT22;24910;53.248;-6.134;2024-02-14T10:36:57;13.90;92.60
38684;DHT22;24910;53.248;-6.134;2024-02-14T10:39:29;14.00;92.60
38684;DHT22;24910;53.248;-6.134;2024-02-14T10:42:00;14.10;92.50
38684;DHT22;24910;53.248;-6.134;2024-02-14T10:44:30;14.20;92.50
38684;DHT22;24910;53.248;-6.134;2024-02-14T10:47:00;14.30;92.50
38684;DHT22;24910;53.248;-6.134;2024-02-14T10:49:32;14.30;92.40
38684;DHT22;24910;53.248;-6.134;2024-02-14T10:52:06;14.40;92.50
38684;DHT22;24910;53.248;-6.134;2024-02-14T10:54:38;14.50;92.50
38684;DHT22;24910;53.248;-6.134;2024-02-14T10:57:09;14.60;92.40
38684;DHT22;24910;53.248;-6.134;2024-02-14T10:59:43;14.60;92.40
38684;DHT22;24910;53.248;-6.134;2024-02-14T11:02:14;14.70;92.40
38684;DHT22;24910;53.248;-6.134;2024-02-14T11:04:43;14.70;92.40
38684;DHT22;24910;53.248;-6.134;2024-02-14T11:07:17;14.70;92.40
38684;DHT22;24910;53.248;-6.134;2024-02-14T11:09:48;14.70;92.50
38684;DHT22;24910;53.248;-6.134;2024-02-14T11:12:23;14.80;92.50
38684;DHT22;24910;53.248;-6.134;2024-02-14T11:14:57;14.80;92.60
38684;DHT22;24910;53.248;-6.134;2024-02-14T11:17:31;14.80;92.50
38684;DHT22;24910;53.248;-6.134;2024-02-14T11:20:13;14.80;92.60
38684;DHT22;24910;53.248;-6.134;2024-02-14T11:22:52;14.80;92.60
38684;DHT22;24910;53.248;-6.134;2024-02-14T11:25:28;14.90;92.60
38684;DHT22;24910;53.248;-6.134;2024-02-14T11:27:59;14.90;92.60
38684;DHT22;24910;53.248;-6.134;2024-02-14T11:30:31;15.00;92.60
38684;DHT22;24910;53.248;-6.134;2024-02-14T11:33:24;15.00;92.60
38684;DHT22;24910;53.248;-6.134;2024-02-14T11:35:54;15.10;92.60
38684;DHT22;24910;53.248;-6.134;2024-02-14T11:38:25;15.10;92.50
38684;DHT22;24910;53.248;-6.134;2024-02-14T11:40:56;15.20;92.50
38684;DHT22;24910;53.248;-6.134;2024-02-14T11:43:25;15.30;92.50
38684;DHT22;24910;53.248;-6.134;2024-02-14T11:45:55;15.30;92.50
38684;DHT22;24910;53.248;-6.134;2024-02-14T11:48:24;15.40;92.50
38684;DHT22;24910;53.248;-6.134;2024-02-14T11:50:54;15.40;92.50
38684;DHT22;24910;53.248;-6.134;2024-02-14T11:53:24;15.40;92.50
38684;DHT22;24910;53.248;-6.134;2024-02-14T11:55:55;15.40;92.50
38684;DHT22;24910;53.248;-6.134;2024-02-14T11:58:25;15.40;92.50
38684;DHT22;24910;53.248;-6.134;2024-02-14T12:00:55;15.50;92.50
38684;DHT22;24910;53.248;-6.134;2024-02-14T12:03:25;15.40;92.50
38684;DHT22;24910;53.248;-6.134;2024-02-14T12:05:56;15.40;92.50
38684;DHT22;24910;53.248;-6.134;2024-02-14T12:08:26;15.50;92.50
38684;DHT22;24910;53.248;-6.134;2024-02-14T12:10:55;15.50;92.50
38684;DHT22;24910;53.248;-6.134;2024-02-14T12:13:26;15.50;92.50
38684;DHT22;24910;53.248;-6.134;2024-02-14T12:16:00;15.40;92.50
38684;DHT22;24910;53.248;-6.134;2024-02-14T12:18:29;15.40;92.50
38684;DHT22;24910;53.248;-6.134;2024-02-14T12:21:04;15.40;92.60
38684;DHT22;24910;53.248;-6.134;2024-02-14T12:23:36;15.30;92.60
38684;DHT22;24910;53.248;-6.134;2024-02-14T12:26:06;15.30;92.60
38684;DHT22;24910;53.248;-6.134;2024-02-14T12:28:37;15.30;92.60
38684;DHT22;24910;53.248;-6.134;2024-02-14T12:31:06;15.30;92.70
38684;DHT22;24910;53.248;-6.134;2024-02-14T12:33:36;15.30;92.70
38684;DHT22;24910;53.248;-6.134;2024-02-14T12:36:06;15.20;92.70
38684;DHT22;24910;53.248;-6.134;2024-02-14T12:38:37;15.20;92.70
38684;DHT22;24910;53.248;-6.134;2024-02-14T12:41:06;15.20;92.70
38684;DHT22;24910;53.248;-6.134;2024-02-14T12:43:37;15.20;92.70
38684;DHT22;24910;53.248;-6.134;2024-02-14T12:46:06;15.20;92.70
38684;DHT22;24910;53.248;-6.134;2024-02-14T12:48:36;15.10;92.70
38684;DHT22;24910;53.248;-6.134;2024-02-14T12:51:05;15.10;92.80
38684;DHT22;24910;53.248;-6.134;2024-02-14T12:53:35;15.10;92.80
38684;DHT22;24910;53.248;-6.134;2024-02-14T12:56:05;15.10;92.70
38684;DHT22;24910;53.248;-6.134;2024-02-14T12:58:34;15.10;92.70
38684;DHT22;24910;53.248;-6.134;2024-02-14T13:01:05;15.10;92.70
38684;DHT22;24910;53.248;-6.134;2024-02-14T13:03:37;15.10;92.70
38684;DHT22;24910;53.248;-6.134;2024-02-14T13:06:06;15.10;92.70
38684;DHT22;24910;53.248;-6.134;2024-02-14T13:08:36;15.10;92.70
38684;DHT22;24910;53.248;-6.134;2024-02-14T13:11:06;15.00;92.80
38684;DHT22;24910;53.248;-6.134;2024-02-14T13:13:36;15.00;92.80
38684;DHT22;24910;53.248;-6.134;2024-02-14T13:16:07;15.00;92.80
38684;DHT22;24910;53.248;-6.134;2024-02-14T13:18:37;15.10;92.80
38684;DHT22;24910;53.248;-6.134;2024-02-14T13:21:07;15.10;92.70
38684;DHT22;24910;53.248;-6.134;2024-02-14T13:23:36;15.10;92.70
38684;DHT22;24910;53.248;-6.134;2024-02-14T13:26:05;15.20;92.70
38684;DHT22;24910;53.248;-6.134;2024-02-14T13:28:35;15.20;92.60
38684;DHT22;24910;53.248;-6.134;2024-02-14T13:31:05;15.20;92.60
38684;DHT22;24910;53.248;-6.134;2024-02-14T13:33:35;15.20;92.60
38684;DHT22;24910;53.248;-6.134;2024-02-14T13:36:05;15.20;92.50
38684;DHT22;24910;53.248;-6.134;2024-02-14T13:38:35;15.30;92.50
38684;DHT22;24910;53.248;-6.134;2024-02-14T13:41:04;15.30;92.40
38684;DHT22;24910;53.248;-6.134;2024-02-14T13:43:33;15.30;92.40
38684;DHT22;24910;53.248;-6.134;2024-02-14T13:46:03;15.30;92.40
38684;DHT22;24910;53.248;-6.134;2024-02-14T13:48:32;15.30;92.40
38684;DHT22;24910;53.248;-6.134;2024-02-14T13:51:04;15.20;92.40
38684;DHT22;24910;53.248;-6.134;2024-02-14T13:53:34;15.20;92.40
38684;DHT22;24910;53.248;-6.134;2024-02-14T13:56:04;15.20;92.40
38684;DHT22;24910;53.248;-6.134;2024-02-14T13:58:33;15.20;92.40
38684;DHT22;24910;53.248;-6.134;2024-02-14T14:01:03;15.20;92.30
38684;DHT22;24910;53.248;-6.134;2024-02-14T14:03:35;15.20;92.30
38684;DHT22;24910;53.248;-6.134;2024-02-14T14:06:07;15.20;92.30
38684;DHT22;24910;53.248;-6.134;2024-02-14T14:08:37;15.20;92.30
38684;DHT22;24910;53.248;-6.134;2024-02-14T14:11:07;15.20;92.30
38684;DHT22;24910;53.248;-6.134;2024-02-14T14:13:37;15.20;92.30
38684;DHT22;24910;53.248;-6.134;2024-02-14T14:16:06;15.20;92.20
38684;DHT22;24910;53.248;-6.134;2024-02-14T14:18:36;15.30;92.20
38684;DHT22;24910;53.248;-6.134;2024-02-14T14:21:08;15.30;92.20
38684;DHT22;24910;53.248;-6.134;2024-02-14T14:23:38;15.30;92.20
38684;DHT22;24910;53.248;-6.134;2024-02-14T14:26:07;15.30;92.20
38684;DHT22;24910;53.248;-6.134;2024-02-14T14:28:36;15.20;92.10
38684;DHT22;24910;53.248;-6.134;2024-02-14T14:31:06;15.20;92.20
38684;DHT22;24910;53.248;-6.134;2024-02-14T14:33:40;15.20;92.20
38684;DHT22;24910;53.248;-6.134;2024-02-14T14:36:12;15.20;92.20
38684;DHT22;24910;53.248;-6.134;2024-02-14T14:38:41;15.20;92.10
38684;DHT22;24910;53.248;-6.134;2024-02-14T14:41:11;15.20;91.80
38684;DHT22;24910;53.248;-6.134;2024-02-14T14:43:40;15.20;92.00
38684;DHT22;24910;53.248;-6.134;2024-02-14T14:46:10;15.10;92.00
38684;DHT22;24910;53.248;-6.134;2024-02-14T14:48:39;15.00;92.00
38684;DHT22;24910;53.248;-6.134;2024-02-14T14:51:09;15.00;92.00
38684;DHT22;24910;53.248;-6.134;2024-02-14T14:53:40;15.00;92.00
38684;DHT22;24910;53.248;-6.134;2024-02-14T14:56:09;15.00;92.00
38684;DHT22;24910;53.248;-6.134;2024-02-14T14:58:39;15.00;92.00
38684;DHT22;24910;53.248;-6.134;2024-02-14T15:01:10;14.90;92.00
38684;DHT22;24910;53.248;-6.134;2024-02-14T15:03:41;14.90;92.00
38684;DHT22;24910;53.248;-6.134;2024-02-14T15:06:10;14.90;92.00
38684;DHT22;24910;53.248;-6.134;2024-02-14T15:08:42;14.90;92.00
38684;DHT22;24910;53.248;-6.134;2024-02-14T15:11:12;14.90;91.90
38684;DHT22;24910;53.248;-6.134;2024-02-14T15:13:44;14.90;91.90
38684;DHT22;24910;53.248;-6.134;2024-02-14T15:16:14;14.80;91.90
38684;DHT22;24910;53.248;-6.134;2024-02-14T15:18:43;14.80;91.90
38684;DHT22;24910;53.248;-6.134;2024-02-14T15:21:14;14.80;91.90
38684;DHT22;24910;53.248;-6.134;2024-02-14T15:23:45;14.80;91.90
38684;DHT22;24910;53.248;-6.134;2024-02-14T15:26:14;14.80;92.00
38684;DHT22;24910;53.248;-6.134;2024-02-14T15:28:45;14.70;91.90
38684;DHT22;24910;53.248;-6.134;2024-02-14T15:31:24;14.70;91.90
38684;DHT22;24910;53.248;-6.134;2024-02-14T15:34:10;14.70;91.90
38684;DHT22;24910;53.248;-6.134;2024-02-14T15:36:40;14.70;91.90
38684;DHT22;24910;53.248;-6.134;2024-02-14T15:39:11;14.70;91.90
38684;DHT22;24910;53.248;-6.134;2024-02-14T15:41:41;14.70;91.90